createdAt,value
2022-11-20T00:01:32.758Z,97050.25
2022-11-20T00:04:00.595Z,97044.41
2022-11-20T00:06:29.142Z,97046.34
2022-11-20T00:09:00.375Z,97051.48
2022-11-20T00:11:30.957Z,97051.84
2022-11-20T00:14:01.405Z,97050.78
2022-11-20T00:16:32.755Z,97043.59
2022-11-20T00:19:00.742Z,97030.50
2022-11-20T00:21:29.565Z,97032.12
2022-11-20T00:23:58.451Z,97028.42
2022-11-20T00:26:29.299Z,97032.19
2022-11-20T00:29:00.101Z,97016.78
2022-11-20T00:31:29.237Z,97021.42
2022-11-20T00:33:57.455Z,97022.52
2022-11-20T00:36:28.469Z,97023.34
2022-11-20T00:38:58.593Z,97022.56
2022-11-20T00:41:32.593Z,97026.09
2022-11-20T00:44:05.443Z,97016.25
2022-11-20T00:46:40.199Z,97006.92
2022-11-20T00:49:16.468Z,97000.02
2022-11-20T00:51:45.878Z,96988.30
2022-11-20T00:54:17.272Z,96989.95
2022-11-20T00:56:48.478Z,96981.45
2022-11-20T00:59:16.810Z,96987.09
2022-11-20T01:01:44.723Z,96979.38
2022-11-20T01:04:12.760Z,96970.35
2022-11-20T01:06:40.745Z,96966.67
2022-11-20T01:09:13.306Z,96960.28
2022-11-20T01:11:44.769Z,96954.48
2022-11-20T01:14:19.715Z,96958.52
2022-11-20T01:16:52.629Z,96949.98
2022-11-20T01:19:24.779Z,96951.36
2022-11-20T01:21:55.556Z,96949.20
2022-11-20T01:24:23.853Z,96942.03
2022-11-20T01:26:52.701Z,96939.08
2022-11-20T01:29:26.820Z,96939.86
2022-11-20T01:31:54.976Z,96935.63
2022-11-20T01:34:23.939Z,96945.20
2022-11-20T01:36:53.330Z,96941.20
2022-11-20T01:39:27.562Z,96938.53
2022-11-20T01:42:15.280Z,96926.81
2022-11-20T01:44:59.391Z,96922.82
2022-11-20T01:47:37.984Z,96916.97
2022-11-20T01:50:19.931Z,96914.83
2022-11-20T01:53:01.237Z,96914.83
2022-11-20T01:55:34.100Z,96914.59
2022-11-20T01:58:03.910Z,96902.59
2022-11-20T02:00:32.182Z,96906.05
2022-11-20T02:03:04.909Z,96899.93
2022-11-20T02:06:08.762Z,96892.98
2022-11-20T02:08:38.631Z,96885.77
2022-11-20T02:11:06.660Z,96892.44
2022-11-20T02:13:45.099Z,96877.22
2022-11-20T02:16:29.925Z,96875.89
2022-11-20T02:19:01.664Z,96867.34
2022-11-20T02:21:37.778Z,96869.18
2022-11-20T02:24:13.816Z,96862.52
2022-11-20T02:27:04.549Z,96846.52
2022-11-20T02:29:46.733Z,96849.70
2022-11-20T02:32:27.378Z,96843.91
2022-11-20T02:34:55.657Z,96837.24
2022-11-20T02:37:24.113Z,96832.20
2022-11-20T02:39:53.539Z,96824.75
2022-11-20T02:42:21.226Z,96818.64
2022-11-20T02:44:49.028Z,96815.97
2022-11-20T02:47:17.776Z,96820.47
2022-11-20T02:49:45.435Z,96814.83
2022-11-20T02:52:13.443Z,96810.53
2022-11-20T02:54:41.557Z,96816.34
2022-11-20T02:57:09.304Z,96817.44
2022-11-20T02:59:37.257Z,96819.00
2022-11-20T03:02:05.573Z,96817.67
2022-11-20T03:04:33.342Z,96807.80
2022-11-20T03:07:01.255Z,96806.17
2022-11-20T03:09:30.635Z,96806.17
2022-11-20T03:11:58.622Z,96801.08
2022-11-20T03:14:26.295Z,96790.96
2022-11-20T03:16:54.110Z,96785.08
2022-11-20T03:19:22.066Z,96785.08
2022-11-20T03:21:50.232Z,96777.08
2022-11-20T03:24:17.959Z,96767.26
2022-11-20T03:26:45.837Z,96768.07
2022-11-20T03:29:13.402Z,96756.36
2022-11-20T03:31:42.328Z,96740.60
2022-11-20T03:34:12.371Z,96732.92
2022-11-20T03:36:43.050Z,96732.38
2022-11-20T03:39:11.056Z,96724.92
2022-11-20T03:41:41.773Z,96726.02
2022-11-20T03:44:11.632Z,96713.53
2022-11-20T03:46:39.680Z,96726.86
2022-11-20T03:49:07.438Z,96730.63
2022-11-20T03:51:36.943Z,96734.86
2022-11-20T03:54:08.732Z,96748.42
2022-11-20T03:56:40.083Z,96758.84
2022-11-20T03:59:10.879Z,96755.34
2022-11-20T04:01:38.831Z,96752.91
2022-11-20T04:04:06.951Z,96750.02
2022-11-20T04:06:38.009Z,96747.03
2022-11-20T04:09:06.754Z,96740.08
2022-11-20T04:11:38.262Z,96737.41
2022-11-20T04:14:16.061Z,96734.98
2022-11-20T04:16:46.414Z,96732.78
2022-11-20T04:19:16.819Z,96730.38
2022-11-20T04:21:45.817Z,96728.73
2022-11-20T04:24:13.939Z,96719.89
2022-11-20T04:26:42.509Z,96712.36
2022-11-20T04:29:12.546Z,96693.70
2022-11-20T04:31:42.281Z,96685.41
2022-11-20T04:34:13.133Z,96702.19
2022-11-20T04:36:40.845Z,96696.30
2022-11-20T04:39:13.585Z,96692.53
2022-11-20T04:41:41.777Z,96690.97
2022-11-20T04:44:09.688Z,96694.19
2022-11-20T04:46:41.364Z,96703.75
2022-11-20T04:49:11.826Z,96675.98
2022-11-20T04:51:39.479Z,96658.14
2022-11-20T04:54:07.065Z,96656.55
2022-11-20T04:56:34.944Z,96666.14
2022-11-20T04:59:02.850Z,96679.14
2022-11-20T05:01:31.393Z,96669.87
2022-11-20T05:03:59.460Z,96677.32
2022-11-20T05:06:27.528Z,96670.36
2022-11-20T05:08:55.477Z,96680.71
2022-11-20T05:11:23.402Z,96683.64
2022-11-20T05:13:52.668Z,96665.20
2022-11-20T05:16:25.499Z,96670.22
2022-11-20T05:18:56.594Z,96678.94
2022-11-20T05:21:24.531Z,96665.61
2022-11-20T05:23:52.572Z,96663.43
2022-11-20T05:26:23.013Z,96671.60
2022-11-20T05:28:52.513Z,96672.16
2022-11-20T05:31:28.204Z,96685.95
2022-11-20T05:33:57.380Z,96703.28
2022-11-20T05:36:25.255Z,96702.04
2022-11-20T05:38:58.073Z,96694.73
2022-11-20T05:41:23.324Z,96680.33
2022-11-20T05:43:52.561Z,96670.98
2022-11-20T05:46:27.857Z,96666.67
2022-11-20T05:48:51.672Z,96674.44
2022-11-20T05:51:20.392Z,96673.34
2022-11-20T05:53:53.299Z,96675.22
2022-11-20T05:56:22.643Z,96666.67
2022-11-20T05:58:53.865Z,96661.89
2022-11-20T06:01:25.924Z,96672.78
2022-11-20T06:03:55.372Z,96676.50
2022-11-20T06:06:23.879Z,96683.07
2022-11-20T06:08:51.822Z,96678.55
2022-11-20T06:11:19.848Z,96679.56
2022-11-20T06:13:50.963Z,96691.27
2022-11-20T06:16:22.481Z,96693.30
2022-11-20T06:18:51.849Z,96682.62
2022-11-20T06:23:51.332Z,96698.80
2022-11-20T06:26:26.332Z,96692.30
2022-11-20T06:28:56.572Z,96695.69
2022-11-20T06:31:27.988Z,96693.52
2022-11-20T06:33:56.723Z,96690.78
2022-11-20T06:36:28.928Z,96696.03
2022-11-20T06:38:57.874Z,96692.52
2022-11-20T06:41:26.182Z,96701.70
2022-11-20T06:43:55.173Z,96697.86
2022-11-20T06:46:23.886Z,96692.95
2022-11-20T06:48:51.709Z,96694.19
2022-11-20T06:51:21.794Z,96689.56
2022-11-20T06:53:50.063Z,96688.72
2022-11-20T06:56:18.091Z,96682.21
2022-11-20T06:58:45.960Z,96678.37
2022-11-20T07:01:15.779Z,96684.66
2022-11-20T07:03:43.877Z,96672.25
2022-11-20T07:06:12.016Z,96681.75
2022-11-20T07:08:39.733Z,96683.18
2022-11-20T07:11:12.944Z,96691.38
2022-11-20T07:13:40.922Z,96697.11
2022-11-20T07:16:11.754Z,96707.33
2022-11-20T07:18:40.333Z,96701.85
2022-11-20T07:21:10.763Z,96702.47
2022-11-20T07:23:38.788Z,96706.08
2022-11-20T07:26:09.593Z,96712.91
2022-11-20T07:28:37.615Z,96705.39
2022-11-20T07:31:12.382Z,96718.05
2022-11-20T07:33:45.316Z,96714.75
2022-11-20T07:36:15.668Z,96723.78
2022-11-20T07:38:46.395Z,96719.44
2022-11-20T07:41:16.123Z,96720.70
2022-11-20T07:43:43.839Z,96718.19
2022-11-20T07:46:11.437Z,96719.91
2022-11-20T07:48:39.239Z,96706.70
2022-11-20T07:51:07.049Z,96716.45
2022-11-20T07:53:37.423Z,96708.81
2022-11-20T07:56:05.974Z,96695.83
2022-11-20T07:58:35.202Z,96701.09
2022-11-20T08:01:07.673Z,96699.61
2022-11-20T08:03:37.881Z,96700.28
2022-11-20T08:06:06.841Z,96694.79
2022-11-20T08:08:37.838Z,96702.18
2022-11-20T08:11:23.206Z,96702.88
2022-11-20T08:14:10.125Z,96706.27
2022-11-20T08:16:38.227Z,96704.81
2022-11-20T08:19:06.334Z,96716.00
2022-11-20T08:21:38.236Z,96719.93
2022-11-20T08:24:05.075Z,96720.60
2022-11-20T08:26:32.923Z,96722.20
2022-11-20T08:29:01.241Z,96725.58
2022-11-20T08:31:29.121Z,96729.81
2022-11-20T08:33:56.949Z,96739.95
2022-11-20T08:36:26.022Z,96729.73
2022-11-20T08:38:56.851Z,96730.73
2022-11-20T08:41:24.856Z,96729.88
2022-11-20T08:43:59.279Z,96731.45
2022-11-20T08:46:31.283Z,96731.75
2022-11-20T08:49:04.380Z,96733.08
2022-11-20T08:51:32.756Z,96738.61
2022-11-20T08:54:00.392Z,96737.72
2022-11-20T08:56:29.644Z,96728.91
2022-11-20T08:59:20.576Z,96728.84
2022-11-20T09:01:29.775Z,96736.86
2022-11-20T09:03:57.858Z,96739.98
2022-11-20T09:06:25.577Z,96739.43
2022-11-20T09:08:55.196Z,96738.23
2022-11-20T09:11:23.382Z,96738.38
2022-11-20T09:13:51.609Z,96743.58
2022-11-20T09:16:19.575Z,96753.39
2022-11-20T09:18:53.983Z,96758.89
2022-11-20T09:21:17.395Z,96763.08
2022-11-20T09:23:46.060Z,96755.27
2022-11-20T09:26:14.966Z,96762.97
2022-11-20T09:28:43.877Z,96762.89
2022-11-20T09:31:26.676Z,96757.20
2022-11-20T09:33:54.589Z,96753.44
2022-11-20T09:36:22.619Z,96755.78
2022-11-20T09:38:50.606Z,96760.50
2022-11-20T09:41:43.572Z,96759.08
2022-11-20T09:44:51.871Z,96764.17
2022-11-20T09:47:40.546Z,96756.95
2022-11-20T09:50:31.569Z,96765.06
2022-11-20T09:53:13.854Z,96766.97
2022-11-20T09:55:41.612Z,96765.52
2022-11-20T09:58:30.272Z,96767.33
2022-11-20T10:01:14.807Z,96770.48
2022-11-20T10:04:06.800Z,96760.45
2022-11-20T10:07:04.313Z,96759.95
2022-11-20T10:09:38.327Z,96751.52
2022-11-20T10:12:53.976Z,96752.10
2022-11-20T10:15:34.521Z,96748.45
2022-11-20T10:18:10.583Z,96735.30
2022-11-20T10:21:03.885Z,96743.61
2022-11-20T10:23:47.976Z,96733.25
2022-11-20T10:26:25.899Z,96729.59
2022-11-20T10:29:19.339Z,96732.09
2022-11-20T10:32:07.161Z,96729.33
2022-11-20T10:34:55.828Z,96732.45
2022-11-20T10:37:28.875Z,96723.20
2022-11-20T10:40:08.057Z,96728.13
2022-11-20T10:42:46.248Z,96728.95
2022-11-20T10:45:28.725Z,96732.80
2022-11-20T10:48:17.606Z,96734.17
2022-11-20T10:51:10.536Z,96727.38
2022-11-20T10:54:34.465Z,96731.75
2022-11-20T10:57:07.786Z,96718.72
2022-11-20T11:00:00.277Z,96727.45
2022-11-20T11:02:46.796Z,96727.33
2022-11-20T11:05:44.270Z,96733.26
2022-11-20T11:08:19.106Z,96739.41
2022-11-20T11:11:02.722Z,96740.30
2022-11-20T11:13:31.790Z,96748.09
2022-11-20T11:16:01.211Z,96742.61
2022-11-20T11:18:32.986Z,96749.09
2022-11-20T11:21:04.493Z,96754.45
2022-11-20T11:23:40.926Z,96744.20
2022-11-20T11:26:22.554Z,96751.34
2022-11-20T11:29:01.498Z,96743.55
2022-11-20T11:31:36.844Z,96746.11
2022-11-20T11:34:06.097Z,96738.41
2022-11-20T11:36:36.488Z,96744.42
2022-11-20T11:39:09.199Z,96745.06
2022-11-20T11:41:37.453Z,96742.26
2022-11-20T11:44:44.912Z,96738.23
2022-11-20T11:47:26.843Z,96735.47
2022-11-20T11:50:15.961Z,96725.98
2022-11-20T11:53:13.416Z,96727.20
2022-11-20T11:55:57.825Z,96731.14
2022-11-20T11:58:46.257Z,96721.75
2022-11-20T12:01:42.395Z,96713.48
2022-11-20T12:04:40.136Z,96713.92
2022-11-20T12:07:44.210Z,96710.72
2022-11-20T12:09:50.370Z,96706.22
2022-11-20T12:12:23.811Z,96706.44
2022-11-20T12:14:55.690Z,96708.91
2022-11-20T12:17:25.004Z,96706.88
2022-11-20T12:19:52.708Z,96709.90
2022-11-20T12:22:37.673Z,96712.89
2022-11-20T12:25:37.086Z,96713.36
2022-11-20T12:28:22.246Z,96720.28
2022-11-20T12:31:29.326Z,96719.41
2022-11-20T12:34:21.983Z,96721.53
2022-11-20T12:36:59.746Z,96726.46
2022-11-20T12:39:44.214Z,96719.41
2022-11-20T12:42:51.410Z,96714.30
2022-11-20T12:45:49.219Z,96713.73
2022-11-20T12:48:55.258Z,96714.52
2022-11-20T12:51:41.004Z,96705.59
2022-11-20T12:54:58.493Z,96703.45
2022-11-20T12:57:59.148Z,96707.47
2022-11-20T13:00:27.159Z,96718.02
2022-11-20T13:03:27.933Z,96712.09
2022-11-20T13:06:18.280Z,96714.67
2022-11-20T13:08:56.563Z,96712.42
2022-11-20T13:11:51.668Z,96721.25
2022-11-20T13:14:45.392Z,96724.50
2022-11-20T13:17:34.038Z,96718.05
2022-11-20T13:20:07.375Z,96718.27
2022-11-20T13:22:48.616Z,96711.77
2022-11-20T13:25:36.078Z,96705.84
2022-11-20T13:28:19.356Z,96703.94
2022-11-20T13:30:53.075Z,96701.60
2022-11-20T13:33:37.718Z,96696.45
2022-11-20T13:36:25.059Z,96701.60
2022-11-20T13:38:56.077Z,96705.41
2022-11-20T13:41:38.264Z,96703.04
2022-11-20T13:44:38.593Z,96700.23
2022-11-20T13:47:23.475Z,96708.94
2022-11-20T13:49:58.493Z,96715.42
2022-11-20T13:52:51.443Z,96718.67
2022-11-20T13:55:43.169Z,96719.54
2022-11-20T13:58:33.072Z,96730.05
2022-11-20T14:01:24.937Z,96736.84
2022-11-20T14:04:09.888Z,96743.89
2022-11-20T14:06:29.499Z,96746.35
2022-11-20T14:09:00.403Z,96740.30
2022-11-20T14:11:32.125Z,96736.94
2022-11-20T14:14:19.605Z,96740.48
2022-11-20T14:16:48.881Z,96747.53
2022-11-20T14:19:28.185Z,96753.55
2022-11-20T14:22:20.380Z,96757.91
2022-11-20T14:24:50.079Z,96756.66
2022-11-20T14:27:21.039Z,96743.56
2022-11-20T14:29:51.211Z,96743.34
2022-11-20T14:32:22.784Z,96747.67
2022-11-20T14:34:51.629Z,96748.23
2022-11-20T14:37:24.523Z,96745.86
2022-11-20T14:40:00.158Z,96746.20
2022-11-20T14:42:31.334Z,96752.13
2022-11-20T14:45:00.933Z,96747.63
2022-11-20T14:47:32.260Z,96747.72
2022-11-20T14:50:07.361Z,96747.59
2022-11-20T14:52:33.791Z,96753.23
2022-11-20T14:55:04.982Z,96750.30
2022-11-20T14:57:37.572Z,96747.69
2022-11-20T15:00:12.833Z,96752.73
2022-11-20T15:02:46.513Z,96754.05
2022-11-20T15:05:16.289Z,96756.13
2022-11-20T15:07:50.257Z,96757.33
2022-11-20T15:10:30.359Z,96764.30
2022-11-20T15:13:14.845Z,96748.50
2022-11-20T15:15:52.616Z,96732.38
2022-11-20T15:18:31.281Z,96722.87
2022-11-20T15:21:06.991Z,96728.64
2022-11-20T15:23:37.173Z,96726.38
2022-11-20T15:26:18.369Z,96729.45
2022-11-20T15:28:46.379Z,96731.20
2022-11-20T15:31:18.981Z,96740.67
2022-11-20T15:33:51.320Z,96740.42
2022-11-20T15:36:19.392Z,96737.75
2022-11-20T15:38:47.828Z,96749.23
2022-11-20T15:41:16.511Z,96748.45
2022-11-20T15:43:44.652Z,96736.52
2022-11-20T15:46:16.463Z,96745.73
2022-11-20T15:48:48.579Z,96749.83
2022-11-20T15:51:27.752Z,96751.58
2022-11-20T15:53:57.199Z,96753.77
2022-11-20T15:56:27.445Z,96749.77
2022-11-20T15:58:55.184Z,96753.85
2022-11-20T16:01:23.598Z,96753.08
2022-11-20T16:03:51.289Z,96755.52
2022-11-20T16:06:18.943Z,96760.09
2022-11-20T16:08:48.646Z,96764.41
2022-11-20T16:11:18.678Z,96742.48
2022-11-20T16:14:04.937Z,96754.45
2022-11-20T16:16:41.158Z,96760.66
2022-11-20T16:19:13.584Z,96760.50
2022-11-20T16:21:42.146Z,96758.23
2022-11-20T16:24:13.328Z,96748.88
2022-11-20T16:26:41.888Z,96753.44
2022-11-20T16:29:11.744Z,96756.67
2022-11-20T16:31:39.296Z,96761.54
2022-11-20T16:34:12.368Z,96763.11
2022-11-20T16:36:42.017Z,96768.56
2022-11-20T16:39:10.362Z,96764.22
2022-11-20T16:41:40.215Z,96773.28
2022-11-20T16:44:12.349Z,96768.78
2022-11-20T16:46:40.713Z,96769.34
2022-11-20T16:49:14.540Z,96763.51
2022-11-20T16:51:45.195Z,96758.48
2022-11-20T16:54:17.906Z,96748.98
2022-11-20T16:56:43.019Z,96744.03
2022-11-20T16:59:13.016Z,96746.23
2022-11-20T17:01:42.563Z,96741.51
2022-11-20T17:04:15.665Z,96732.48
2022-11-20T17:06:49.665Z,96738.05
2022-11-20T17:09:19.784Z,96724.69
2022-11-20T17:11:49.452Z,96724.61
2022-11-20T17:14:18.028Z,96717.67
2022-11-20T17:16:46.032Z,96721.38
2022-11-20T17:19:15.318Z,96723.27
2022-11-20T17:21:45.689Z,96717.92
2022-11-20T17:24:15.727Z,96722.38
2022-11-20T17:26:45.270Z,96728.44
2022-11-20T17:29:20.779Z,96734.02
2022-11-20T17:31:48.690Z,96733.86
2022-11-20T17:34:19.349Z,96741.03
2022-11-20T17:36:46.847Z,96744.16
2022-11-20T17:39:16.214Z,96751.06
2022-11-20T17:41:44.336Z,96759.91
2022-11-20T17:44:13.208Z,96769.16
2022-11-20T17:46:41.059Z,96773.43
2022-11-20T17:49:08.702Z,96780.34
2022-11-20T17:51:36.452Z,96781.05
2022-11-20T17:54:06.943Z,96774.81
2022-11-20T17:56:54.092Z,96772.61
2022-11-20T17:59:22.158Z,96774.96
2022-11-20T18:01:50.003Z,96787.25
2022-11-20T18:04:21.443Z,96783.55
2022-11-20T18:06:49.441Z,96779.61
2022-11-20T18:09:18.749Z,96779.38
2022-11-20T18:11:46.072Z,96775.59
2022-11-20T18:14:35.629Z,96785.52
2022-11-20T18:17:12.472Z,96782.84
2022-11-20T18:20:00.674Z,96788.52
2022-11-20T18:22:18.095Z,96791.19
2022-11-20T18:24:46.229Z,96789.52
2022-11-20T18:27:19.255Z,96793.80
2022-11-20T18:29:50.156Z,96794.32
2022-11-20T18:32:21.338Z,96797.33
2022-11-20T18:34:51.094Z,96793.64
2022-11-20T18:37:19.640Z,96792.83
2022-11-20T18:39:49.424Z,96791.98
2022-11-20T18:42:37.987Z,96792.53
2022-11-20T18:45:09.613Z,96794.42
2022-11-20T18:47:39.603Z,96786.63
2022-11-20T18:50:10.320Z,96786.63
2022-11-20T18:52:41.651Z,96785.28
2022-11-20T18:55:11.645Z,96783.16
2022-11-20T18:57:39.706Z,96788.03
2022-11-20T19:00:09.828Z,96786.25
2022-11-20T19:02:43.045Z,96782.79
2022-11-20T19:05:10.347Z,96777.97
2022-11-20T19:07:52.432Z,96782.53
2022-11-20T19:10:28.921Z,96779.63
2022-11-20T19:12:58.131Z,96782.86
2022-11-20T19:15:31.734Z,96773.28
2022-11-20T19:19:11.472Z,96774.84
2022-11-20T19:30:46.721Z,96786.64
2022-11-20T19:32:27.548Z,96793.17
2022-11-20T19:34:58.234Z,96797.27
2022-11-20T19:37:26.873Z,96798.38
2022-11-20T19:39:59.556Z,96802.16
2022-11-20T19:42:33.665Z,96799.55
2022-11-20T19:45:11.726Z,96796.55
2022-11-20T19:50:24.003Z,96799.00
2022-11-20T19:55:29.340Z,96792.56
2022-11-20T19:58:06.510Z,96791.00
2022-11-20T20:00:57.158Z,96791.39
2022-11-20T20:03:31.640Z,96787.38
2022-11-20T20:06:16.919Z,96791.92
2022-11-20T20:08:56.786Z,96796.97
2022-11-20T20:14:06.548Z,96791.55
2022-11-20T20:16:39.497Z,96788.55
2022-11-20T20:21:36.074Z,96795.56
2022-11-20T20:26:33.619Z,96787.21
2022-11-20T20:29:05.388Z,96788.33
2022-11-20T20:31:35.743Z,96794.75
2022-11-20T20:34:04.945Z,96791.06
2022-11-20T20:36:35.035Z,96775.88
2022-11-20T20:41:31.209Z,96770.37
2022-11-20T20:44:17.738Z,96772.82
2022-11-20T20:49:14.762Z,96757.27
2022-11-20T20:54:13.689Z,96771.87
2022-11-20T20:59:09.144Z,96781.08
2022-11-20T21:04:06.255Z,96775.11
2022-11-20T21:06:36.585Z,96771.00
2022-11-20T21:09:07.640Z,96776.83
2022-11-20T21:14:03.160Z,96767.95
2022-11-20T21:19:02.409Z,96777.05
2022-11-20T21:23:59.254Z,96779.98
2022-11-20T21:26:27.404Z,96785.86
2022-11-20T21:28:58.914Z,96777.05
2022-11-20T21:33:58.553Z,96771.80
2022-11-20T21:38:56.046Z,96764.41
2022-11-20T21:41:28.353Z,96766.38
2022-11-20T21:46:32.037Z,96763.06
2022-11-20T21:49:02.621Z,96762.28
2022-11-20T21:51:33.034Z,96763.63
2022-11-20T21:54:01.697Z,96766.85
2022-11-20T21:56:36.072Z,96763.84
2022-11-20T21:59:05.524Z,96759.05
2022-11-20T22:01:33.868Z,96754.82
2022-11-20T22:06:37.458Z,96742.72
2022-11-20T22:11:33.397Z,96741.05
2022-11-20T22:14:19.945Z,96733.81
2022-11-20T22:19:18.632Z,96736.74
2022-11-20T22:24:17.163Z,96721.63
2022-11-20T22:29:23.327Z,96710.78
2022-11-20T22:31:53.394Z,96709.19
2022-11-20T22:34:23.642Z,96709.05
2022-11-20T22:36:52.865Z,96710.48
2022-11-20T22:41:49.011Z,96707.33
2022-11-20T22:44:17.041Z,96702.05
2022-11-20T22:46:48.502Z,96706.95
2022-11-20T22:49:19.463Z,96708.03
2022-11-20T22:51:47.375Z,96702.94
2022-11-20T22:54:16.861Z,96691.98
2022-11-20T22:56:45.210Z,96680.52
2022-11-20T22:59:13.792Z,96672.83
2022-11-20T23:01:42.822Z,96676.28
2022-11-20T23:04:12.083Z,96672.27
2022-11-20T23:06:39.098Z,96671.02
2022-11-20T23:09:11.474Z,96670.00
2022-11-20T23:11:39.561Z,96662.55
2022-11-20T23:16:36.261Z,96668.11
2022-11-20T23:19:08.008Z,96657.98
2022-11-20T23:24:14.660Z,96634.48
2022-11-20T23:29:12.058Z,96637.94
2022-11-20T23:34:10.686Z,96623.31
2022-11-20T23:36:48.990Z,96623.09
2022-11-20T23:42:45.021Z,96622.75
2022-11-20T23:48:07.049Z,96615.52
2022-11-20T23:50:38.192Z,96608.53
2022-11-20T23:53:06.933Z,96596.95
2022-11-20T23:55:37.590Z,96585.73
2022-11-20T23:58:05.559Z,96583.06
